sensor_id;sensor_type;location;lat;lon;timestamp;pressure;altitude;pressure_sealevel;temperature;humidity
44988;BME280;35735;52.226;21.254;2023-06-14T00:01:24;100451.38;;;12.71;100.00
44988;BME280;35735;52.226;21.254;2023-06-14T00:06:24;100447.72;;;12.75;100.00
44988;BME280;35735;52.226;21.254;2023-06-14T00:11:25;100445.06;;;12.71;100.00
44988;BME280;35735;52.226;21.254;2023-06-14T00:16:25;100442.34;;;12.69;100.00
44988;BME280;35735;52.226;21.254;2023-06-14T00:21:26;100445.09;;;12.66;100.00
44988;BME280;35735;52.226;21.254;2023-06-14T00:26:26;100432.47;;;12.65;100.00
44988;BME280;35735;52.226;21.254;2023-06-14T00:31:27;100434.22;;;12.69;100.00
44988;BME280;35735;52.226;21.254;2023-06-14T00:36:28;100436.94;;;12.69;100.00
44988;BME280;35735;52.226;21.254;2023-06-14T00:41:28;100438.78;;;12.67;100.00
44988;BME280;35735;52.226;21.254;2023-06-14T00:46:29;100434.25;;;12.66;100.00
44988;BME280;35735;52.226;21.254;2023-06-14T00:51:29;100429.75;;;12.68;100.00
44988;BME280;35735;52.226;21.254;2023-06-14T00:56:30;100420.75;;;12.63;100.00
44988;BME280;35735;52.226;21.254;2023-06-14T01:01:30;100426.19;;;12.63;100.00
44988;BME280;35735;52.226;21.254;2023-06-14T01:11:50;100416.22;;;12.64;100.00
44988;BME280;35735;52.226;21.254;2023-06-14T01:16:59;100424.41;;;12.56;100.00
44988;BME280;35735;52.226;21.254;2023-06-14T01:22:01;100416.25;;;12.60;100.00
44988;BME280;35735;52.226;21.254;2023-06-14T01:27:02;100412.63;;;12.65;100.00
44988;BME280;35735;52.226;21.254;2023-06-14T01:32:04;100412.59;;;12.66;100.00
44988;BME280;35735;52.226;21.254;2023-06-14T01:37:06;100407.13;;;12.72;100.00
44988;BME280;35735;52.226;21.254;2023-06-14T01:42:07;100407.97;;;12.81;100.00
44988;BME280;35735;52.226;21.254;2023-06-14T01:47:08;100406.09;;;12.86;100.00
44988;BME280;35735;52.226;21.254;2023-06-14T01:52:09;100408.78;;;12.89;100.00
44988;BME280;35735;52.226;21.254;2023-06-14T01:57:11;100418.78;;;12.81;100.00
44988;BME280;35735;52.226;21.254;2023-06-14T02:02:12;100415.22;;;12.75;100.00
44988;BME280;35735;52.226;21.254;2023-06-14T02:07:13;100407.16;;;12.69;100.00
44988;BME280;35735;52.226;21.254;2023-06-14T02:12:14;100408.09;;;12.68;100.00
44988;BME280;35735;52.226;21.254;2023-06-14T02:17:14;100410.75;;;12.71;100.00
44988;BME280;35735;52.226;21.254;2023-06-14T02:22:15;100410.69;;;12.76;100.00
44988;BME280;35735;52.226;21.254;2023-06-14T02:27:15;100413.41;;;12.76;100.00
44988;BME280;35735;52.226;21.254;2023-06-14T02:32:16;100410.63;;;12.87;100.00
44988;BME280;35735;52.226;21.254;2023-06-14T02:37:17;100406.09;;;12.86;100.00
44988;BME280;35735;52.226;21.254;2023-06-14T02:42:17;100402.53;;;12.81;100.00
44988;BME280;35735;52.226;21.254;2023-06-14T02:47:18;100402.53;;;12.81;100.00
44988;BME280;35735;52.226;21.254;2023-06-14T02:52:19;100399.78;;;12.87;100.00
44988;BME280;35735;52.226;21.254;2023-06-14T02:57:21;100403.41;;;12.83;100.00
44988;BME280;35735;52.226;21.254;2023-06-14T03:02:22;100404.34;;;12.82;100.00
44988;BME280;35735;52.226;21.254;2023-06-14T03:07:23;100401.66;;;12.78;100.00
44988;BME280;35735;52.226;21.254;2023-06-14T03:12:23;100398.97;;;12.75;100.00
44988;BME280;35735;52.226;21.254;2023-06-14T03:17:24;100394.44;;;12.77;100.00
44988;BME280;35735;52.226;21.254;2023-06-14T03:22:24;100389.91;;;12.79;100.00
44988;BME280;35735;52.226;21.254;2023-06-14T03:27:25;100395.34;;;12.78;100.00
44988;BME280;35735;52.226;21.254;2023-06-14T03:32:25;100395.31;;;12.79;100.00
44988;BME280;35735;52.226;21.254;2023-06-14T03:37:26;100394.34;;;12.88;100.00
44988;BME280;35735;52.226;21.254;2023-06-14T03:42:26;100382.59;;;12.88;100.00
44988;BME280;35735;52.226;21.254;2023-06-14T03:47:27;100384.41;;;12.89;100.00
44988;BME280;35735;52.226;21.254;2023-06-14T03:52:27;100387.94;;;12.97;100.00
44988;BME280;35735;52.226;21.254;2023-06-14T03:57:29;100384.22;;;13.04;100.00
44988;BME280;35735;52.226;21.254;2023-06-14T04:02:30;100380.56;;;13.11;100.00
44988;BME280;35735;52.226;21.254;2023-06-14T04:07:30;100386.84;;;13.15;100.00
44988;BME280;35735;52.226;21.254;2023-06-14T04:12:31;100394.13;;;13.11;100.00
44988;BME280;35735;52.226;21.254;2023-06-14T04:17:32;100404.06;;;13.09;100.00
44988;BME280;35735;52.226;21.254;2023-06-14T04:22:35;100405.84;;;13.13;100.00
44988;BME280;35735;52.226;21.254;2023-06-14T04:27:35;100403.03;;;13.20;100.00
44988;BME280;35735;52.226;21.254;2023-06-14T04:32:36;100400.28;;;13.23;100.00
44988;BME280;35735;52.226;21.254;2023-06-14T04:37:36;100392.13;;;13.27;100.00
44988;BME280;35735;52.226;21.254;2023-06-14T04:42:37;100389.47;;;13.20;100.00
44988;BME280;35735;52.226;21.254;2023-06-14T04:47:38;100388.56;;;13.21;100.00
44988;BME280;35735;52.226;21.254;2023-06-14T04:52:38;100394.78;;;13.30;100.00
44988;BME280;35735;52.226;21.254;2023-06-14T04:57:39;100395.59;;;13.43;100.00
44988;BME280;35735;52.226;21.254;2023-06-14T05:02:39;100399.78;;;13.69;100.00
44988;BME280;35735;52.226;21.254;2023-06-14T05:07:40;100403.09;;;13.91;100.00
44988;BME280;35735;52.226;21.254;2023-06-14T05:12:41;100408.34;;;14.05;100.00
44988;BME280;35735;52.226;21.254;2023-06-14T05:17:41;100413.66;;;14.11;100.00
44988;BME280;35735;52.226;21.254;2023-06-14T05:22:42;100410.97;;;14.09;100.00
44988;BME280;35735;52.226;21.254;2023-06-14T05:27:42;100419.91;;;14.16;100.00
44988;BME280;35735;52.226;21.254;2023-06-14T05:32:43;100417.09;;;14.22;100.00
44988;BME280;35735;52.226;21.254;2023-06-14T05:37:43;100428.06;;;14.16;100.00
44988;BME280;35735;52.226;21.254;2023-06-14T05:42:44;100417.19;;;14.16;100.00
44988;BME280;35735;52.226;21.254;2023-06-14T05:47:44;100411.66;;;14.24;100.00
44988;BME280;35735;52.226;21.254;2023-06-14T05:52:45;100418.97;;;14.19;100.00
44988;BME280;35735;52.226;21.254;2023-06-14T05:57:46;100419.00;;;14.17;100.00
44988;BME280;35735;52.226;21.254;2023-06-14T06:02:46;100420.69;;;14.24;100.00
44988;BME280;35735;52.226;21.254;2023-06-14T06:07:47;100413.37;;;14.30;100.00
44988;BME280;35735;52.226;21.254;2023-06-14T06:12:47;100413.31;;;14.33;100.00
44988;BME280;35735;52.226;21.254;2023-06-14T06:17:48;100416.91;;;14.35;100.00
44988;BME280;35735;52.226;21.254;2023-06-14T06:22:48;100423.13;;;14.43;100.00
44988;BME280;35735;52.226;21.254;2023-06-14T06:27:49;100420.31;;;14.49;100.00
44988;BME280;35735;52.226;21.254;2023-06-14T06:32:50;100423.78;;;14.60;100.00
44988;BME280;35735;52.226;21.254;2023-06-14T06:37:50;100430.06;;;14.64;100.00
44988;BME280;35735;52.226;21.254;2023-06-14T06:42:51;100427.28;;;14.69;100.00
44988;BME280;35735;52.226;21.254;2023-06-14T06:47:51;100429.87;;;14.75;100.00
44988;BME280;35735;52.226;21.254;2023-06-14T06:52:52;100427.94;;;14.81;100.00
44988;BME280;35735;52.226;21.254;2023-06-14T06:57:53;100438.59;;;14.95;100.00
44988;BME280;35735;52.226;21.254;2023-06-14T07:02:53;100435.66;;;15.06;100.00
44988;BME280;35735;52.226;21.254;2023-06-14T07:07:54;100436.50;;;15.10;100.00
44988;BME280;35735;52.226;21.254;2023-06-14T07:12:54;100439.06;;;15.19;100.00
44988;BME280;35735;52.226;21.254;2023-06-14T07:17:55;100438.00;;;15.28;100.00
44988;BME280;35735;52.226;21.254;2023-06-14T07:22:55;100440.37;;;15.45;100.00
44988;BME280;35735;52.226;21.254;2023-06-14T07:27:56;100443.91;;;15.50;100.00
44988;BME280;35735;52.226;21.254;2023-06-14T07:32:56;100445.44;;;15.63;100.00
44988;BME280;35735;52.226;21.254;2023-06-14T07:37:57;100436.91;;;15.83;100.00
44988;BME280;35735;52.226;21.254;2023-06-14T07:42:57;100443.78;;;16.01;100.00
44988;BME280;35735;52.226;21.254;2023-06-14T07:47:58;100438.00;;;16.15;100.00
44988;BME280;35735;52.226;21.254;2023-06-14T07:52:58;100444.09;;;16.28;100.00
44988;BME280;35735;52.226;21.254;2023-06-14T07:57:59;100445.66;;;16.38;100.00
44988;BME280;35735;52.226;21.254;2023-06-14T08:02:59;100442.75;;;16.46;100.00
44988;BME280;35735;52.226;21.254;2023-06-14T08:08:00;100449.72;;;16.59;100.00
44988;BME280;35735;52.226;21.254;2023-06-14T08:13:01;100453.13;;;16.67;100.00
44988;BME280;35735;52.226;21.254;2023-06-14T08:18:01;100451.88;;;16.82;100.00
44988;BME280;35735;52.226;21.254;2023-06-14T08:23:04;100453.53;;;16.90;100.00
44988;BME280;35735;52.226;21.254;2023-06-14T08:28:05;100457.03;;;16.95;100.00
44988;BME280;35735;52.226;21.254;2023-06-14T08:33:06;100462.31;;;17.01;100.00
44988;BME280;35735;52.226;21.254;2023-06-14T08:38:06;100451.34;;;17.04;100.00
44988;BME280;35735;52.226;21.254;2023-06-14T08:43:07;100453.25;;;16.99;100.00
44988;BME280;35735;52.226;21.254;2023-06-14T08:48:07;100456.66;;;17.09;100.00
44988;BME280;35735;52.226;21.254;2023-06-14T08:53:11;100463.78;;;17.14;100.00
44988;BME280;35735;52.226;21.254;2023-06-14T08:58:14;100462.75;;;17.18;100.00
44988;BME280;35735;52.226;21.254;2023-06-14T09:03:15;100463.38;;;17.30;100.00
44988;BME280;35735;52.226;21.254;2023-06-14T09:08:15;100459.62;;;17.34;100.00
44988;BME280;35735;52.226;21.254;2023-06-14T09:13:17;100457.37;;;17.50;100.00
44988;BME280;35735;52.226;21.254;2023-06-14T09:18:18;100454.44;;;17.57;100.00
44988;BME280;35735;52.226;21.254;2023-06-14T09:23:21;100456.72;;;17.73;100.00
44988;BME280;35735;52.226;21.254;2023-06-14T09:28:27;100456.28;;;17.88;100.00
44988;BME280;35735;52.226;21.254;2023-06-14T09:33:27;100452.16;;;18.05;100.00
44988;BME280;35735;52.226;21.254;2023-06-14T09:38:28;100457.44;;;18.11;100.00
44988;BME280;35735;52.226;21.254;2023-06-14T09:43:29;100460.03;;;18.15;100.00
44988;BME280;35735;52.226;21.254;2023-06-14T09:48:29;100454.56;;;18.15;100.00
44988;BME280;35735;52.226;21.254;2023-06-14T09:53:30;100460.87;;;18.18;100.00
44988;BME280;35735;52.226;21.254;2023-06-14T09:58:37;100457.94;;;18.24;100.00
44988;BME280;35735;52.226;21.254;2023-06-14T10:03:39;100465.03;;;18.31;100.00
44988;BME280;35735;52.226;21.254;2023-06-14T10:08:40;100459.97;;;18.47;100.00
44988;BME280;35735;52.226;21.254;2023-06-14T10:13:41;100457.87;;;18.55;100.00
44988;BME280;35735;52.226;21.254;2023-06-14T10:23:52;100457.13;;;18.50;100.00
44988;BME280;35735;52.226;21.254;2023-06-14T10:29:01;100466.56;;;18.40;100.00
44988;BME280;35735;52.226;21.254;2023-06-14T10:34:07;100470.59;;;18.28;100.00
44988;BME280;35735;52.226;21.254;2023-06-14T10:39:13;100473.63;;;18.17;100.00
44988;BME280;35735;52.226;21.254;2023-06-14T10:44:32;100475.91;;;18.03;100.00
44988;BME280;35735;52.226;21.254;2023-06-14T10:49:40;100474.37;;;17.92;100.00
44988;BME280;35735;52.226;21.254;2023-06-14T11:00:03;100460.47;;;17.69;100.00
44988;BME280;35735;52.226;21.254;2023-06-14T11:05:04;100452.88;;;17.80;100.00
44988;BME280;35735;52.226;21.254;2023-06-14T11:15:17;100453.66;;;18.15;100.00
44988;BME280;35735;52.226;21.254;2023-06-14T11:20:18;100442.56;;;18.21;100.00
44988;BME280;35735;52.226;21.254;2023-06-14T11:25:19;100438.09;;;18.47;100.00
44988;BME280;35735;52.226;21.254;2023-06-14T11:30:20;100440.06;;;18.70;99.86
44988;BME280;35735;52.226;21.254;2023-06-14T11:35:24;100443.78;;;18.96;99.73
44988;BME280;35735;52.226;21.254;2023-06-14T11:40:25;100434.69;;;19.22;99.72
44988;BME280;35735;52.226;21.254;2023-06-14T11:45:27;100448.78;;;19.36;98.45
44988;BME280;35735;52.226;21.254;2023-06-14T11:50:28;100446.66;;;19.44;96.31
44988;BME280;35735;52.226;21.254;2023-06-14T11:55:28;100448.25;;;19.50;93.99
44988;BME280;35735;52.226;21.254;2023-06-14T12:00:29;100445.38;;;19.30;92.82
44988;BME280;35735;52.226;21.254;2023-06-14T12:05:30;100444.03;;;19.41;92.08
44988;BME280;35735;52.226;21.254;2023-06-14T12:10:39;100447.69;;;19.66;91.81
44988;BME280;35735;52.226;21.254;2023-06-14T12:15:40;100444.44;;;20.05;91.87
44988;BME280;35735;52.226;21.254;2023-06-14T12:20:40;100436.72;;;20.14;90.64
44988;BME280;35735;52.226;21.254;2023-06-14T12:25:41;100447.03;;;20.08;90.13
44988;BME280;35735;52.226;21.254;2023-06-14T12:30:42;100438.81;;;20.08;89.01
44988;BME280;35735;52.226;21.254;2023-06-14T12:35:42;100429.00;;;20.02;90.34
44988;BME280;35735;52.226;21.254;2023-06-14T12:40:43;100423.53;;;20.02;88.44
44988;BME280;35735;52.226;21.254;2023-06-14T12:45:43;100430.25;;;19.93;86.09
44988;BME280;35735;52.226;21.254;2023-06-14T12:50:44;100437.66;;;19.91;87.13
44988;BME280;35735;52.226;21.254;2023-06-14T12:55:44;100417.28;;;19.98;86.17
44988;BME280;35735;52.226;21.254;2023-06-14T13:00:46;100418.22;;;19.97;86.08
44988;BME280;35735;52.226;21.254;2023-06-14T13:05:47;100411.25;;;20.12;86.74
44988;BME280;35735;52.226;21.254;2023-06-14T13:10:48;100399.94;;;20.22;85.58
44988;BME280;35735;52.226;21.254;2023-06-14T13:15:50;100409.31;;;20.14;85.45
44988;BME280;35735;52.226;21.254;2023-06-14T13:20:50;100405.06;;;20.07;85.03
44988;BME280;35735;52.226;21.254;2023-06-14T13:25:51;100408.72;;;20.06;84.14
44988;BME280;35735;52.226;21.254;2023-06-14T13:30:51;100405.28;;;20.01;83.57
44988;BME280;35735;52.226;21.254;2023-06-14T13:35:52;100401.25;;;19.88;82.97
44988;BME280;35735;52.226;21.254;2023-06-14T13:40:52;100394.56;;;19.71;82.32
44988;BME280;35735;52.226;21.254;2023-06-14T13:45:53;100391.94;;;19.68;81.56
44988;BME280;35735;52.226;21.254;2023-06-14T13:50:54;100397.53;;;19.65;80.82
44988;BME280;35735;52.226;21.254;2023-06-14T13:55:55;100401.31;;;19.61;81.21
44988;BME280;35735;52.226;21.254;2023-06-14T14:00:55;100405.59;;;19.44;82.60
44988;BME280;35735;52.226;21.254;2023-06-14T14:05:56;100401.03;;;19.20;83.08
44988;BME280;35735;52.226;21.254;2023-06-14T14:10:56;100392.28;;;19.09;84.46
44988;BME280;35735;52.226;21.254;2023-06-14T14:15:57;100395.12;;;19.31;83.74
44988;BME280;35735;52.226;21.254;2023-06-14T14:20:58;100400.22;;;19.41;84.16
44988;BME280;35735;52.226;21.254;2023-06-14T14:25:58;100400.53;;;19.57;83.29
44988;BME280;35735;52.226;21.254;2023-06-14T14:30:59;100394.06;;;19.60;82.79
44988;BME280;35735;52.226;21.254;2023-06-14T14:35:59;100400.91;;;19.48;82.46
44988;BME280;35735;52.226;21.254;2023-06-14T14:41:00;100388.31;;;19.42;83.50
44988;BME280;35735;52.226;21.254;2023-06-14T14:46:01;100383.78;;;19.67;84.76
44988;BME280;35735;52.226;21.254;2023-06-14T14:51:01;100372.16;;;19.85;84.69
44988;BME280;35735;52.226;21.254;2023-06-14T14:56:02;100375.31;;;19.98;85.18
44988;BME280;35735;52.226;21.254;2023-06-14T15:01:02;100370.75;;;19.97;85.20
44988;BME280;35735;52.226;21.254;2023-06-14T15:06:03;100368.69;;;19.80;85.33
44988;BME280;35735;52.226;21.254;2023-06-14T15:11:04;100366.22;;;19.72;85.23
44988;BME280;35735;52.226;21.254;2023-06-14T15:16:04;100376.63;;;19.62;84.75
44988;BME280;35735;52.226;21.254;2023-06-14T15:21:05;100375.50;;;19.44;84.54
44988;BME280;35735;52.226;21.254;2023-06-14T15:26:05;100375.09;;;19.30;85.22
44988;BME280;35735;52.226;21.254;2023-06-14T15:31:06;100382.91;;;19.16;85.99
44988;BME280;35735;52.226;21.254;2023-06-14T15:36:07;100384.47;;;18.98;86.56
44988;BME280;35735;52.226;21.254;2023-06-14T15:41:07;100379.16;;;18.93;87.44
44988;BME280;35735;52.226;21.254;2023-06-14T15:46:08;100377.56;;;18.86;87.87
44988;BME280;35735;52.226;21.254;2023-06-14T15:51:08;100369.37;;;18.86;88.72
44988;BME280;35735;52.226;21.254;2023-06-14T15:56:09;100365.81;;;18.82;89.29
44988;BME280;35735;52.226;21.254;2023-06-14T16:01:09;100373.34;;;18.76;90.07
44988;BME280;35735;52.226;21.254;2023-06-14T16:06:10;100362.84;;;18.63;91.24
44988;BME280;35735;52.226;21.254;2023-06-14T16:11:11;100364.75;;;18.61;92.23
44988;BME280;35735;52.226;21.254;2023-06-14T16:16:11;100366.94;;;18.50;93.03
44988;BME280;35735;52.226;21.254;2023-06-14T16:21:12;100360.78;;;18.43;94.10
44988;BME280;35735;52.226;21.254;2023-06-14T16:26:12;100364.22;;;18.50;94.65
44988;BME280;35735;52.226;21.254;2023-06-14T16:31:13;100364.44;;;18.42;95.08
44988;BME280;35735;52.226;21.254;2023-06-14T16:36:14;100357.31;;;18.38;95.86
44988;BME280;35735;52.226;21.254;2023-06-14T16:41:14;100369.03;;;18.42;96.19
44988;BME280;35735;52.226;21.254;2023-06-14T16:46:27;100352.84;;;18.36;96.20
44988;BME280;35735;52.226;21.254;2023-06-14T16:51:28;100368.63;;;18.26;96.67
44988;BME280;35735;52.226;21.254;2023-06-14T16:56:29;100360.53;;;18.24;96.93
44988;BME280;35735;52.226;21.254;2023-06-14T17:01:29;100364.28;;;18.20;96.66
44988;BME280;35735;52.226;21.254;2023-06-14T17:06:30;100368.06;;;18.16;96.72
44988;BME280;35735;52.226;21.254;2023-06-14T17:11:31;100364.41;;;18.15;96.71
44988;BME280;35735;52.226;21.254;2023-06-14T17:16:31;100366.25;;;18.15;96.72
44988;BME280;35735;52.226;21.254;2023-06-14T17:21:32;100366.16;;;18.18;96.81
44988;BME280;35735;52.226;21.254;2023-06-14T17:26:33;100368.12;;;18.14;96.70
44988;BME280;35735;52.226;21.254;2023-06-14T17:31:33;100368.16;;;18.13;96.91
44988;BME280;35735;52.226;21.254;2023-06-14T17:36:34;100369.94;;;18.14;96.96
44988;BME280;35735;52.226;21.254;2023-06-14T17:41:34;100369.19;;;18.09;97.05
44988;BME280;35735;52.226;21.254;2023-06-14T17:46:35;100377.47;;;18.06;97.45
44988;BME280;35735;52.226;21.254;2023-06-14T17:51:36;100383.88;;;18.05;97.50
44988;BME280;35735;52.226;21.254;2023-06-14T17:56:36;100375.59;;;18.08;97.94
44988;BME280;35735;52.226;21.254;2023-06-14T18:01:37;100382.22;;;17.99;98.66
44988;BME280;35735;52.226;21.254;2023-06-14T18:06:37;100381.00;;;17.80;99.81
44988;BME280;35735;52.226;21.254;2023-06-14T18:11:38;100380.06;;;17.79;100.00
44988;BME280;35735;52.226;21.254;2023-06-14T18:16:38;100377.34;;;17.79;100.00
44988;BME280;35735;52.226;21.254;2023-06-14T18:21:39;100385.44;;;17.82;100.00
44988;BME280;35735;52.226;21.254;2023-06-14T18:26:39;100386.97;;;17.92;100.00
44988;BME280;35735;52.226;21.254;2023-06-14T18:31:43;100390.78;;;17.88;100.00
44988;BME280;35735;52.226;21.254;2023-06-14T18:36:44;100391.12;;;17.76;100.00
44988;BME280;35735;52.226;21.254;2023-06-14T18:41:44;100391.16;;;17.74;100.00
44988;BME280;35735;52.226;21.254;2023-06-14T18:46:45;100387.97;;;17.58;100.00
44988;BME280;35735;52.226;21.254;2023-06-14T18:51:46;100390.38;;;17.39;100.00
44988;BME280;35735;52.226;21.254;2023-06-14T18:56:46;100388.25;;;17.18;100.00
44988;BME280;35735;52.226;21.254;2023-06-14T19:01:47;100395.75;;;17.10;100.00
44988;BME280;35735;52.226;21.254;2023-06-14T19:06:47;100395.16;;;16.97;100.00
44988;BME280;35735;52.226;21.254;2023-06-14T19:11:48;100401.88;;;16.82;100.00
44988;BME280;35735;52.226;21.254;2023-06-14T19:16:49;100410.06;;;16.82;100.00
44988;BME280;35735;52.226;21.254;2023-06-14T19:21:50;100407.41;;;16.79;100.00
44988;BME280;35735;52.226;21.254;2023-06-14T19:26:50;100411.03;;;16.79;100.00
44988;BME280;35735;52.226;21.254;2023-06-14T19:31:51;100408.28;;;16.81;100.00
44988;BME280;35735;52.226;21.254;2023-06-14T19:36:52;100411.81;;;16.86;100.00
44988;BME280;35735;52.226;21.254;2023-06-14T19:41:54;100420.16;;;16.78;100.00
44988;BME280;35735;52.226;21.254;2023-06-14T19:46:55;100418.50;;;16.73;100.00
44988;BME280;35735;52.226;21.254;2023-06-14T19:51:58;100421.47;;;16.62;100.00
44988;BME280;35735;52.226;21.254;2023-06-14T19:56:59;100418.34;;;16.41;100.00
44988;BME280;35735;52.226;21.254;2023-06-14T20:02:02;100421.47;;;16.24;100.00
44988;BME280;35735;52.226;21.254;2023-06-14T20:07:03;100424.53;;;16.10;100.00
44988;BME280;35735;52.226;21.254;2023-06-14T20:12:04;100410.25;;;15.99;100.00
44988;BME280;35735;52.226;21.254;2023-06-14T20:17:08;100417.81;;;15.85;100.00
44988;BME280;35735;52.226;21.254;2023-06-14T20:22:09;100413.19;;;15.88;100.00
44988;BME280;35735;52.226;21.254;2023-06-14T20:27:09;100419.47;;;15.92;100.00
44988;BME280;35735;52.226;21.254;2023-06-14T20:32:10;100422.34;;;15.86;100.00
44988;BME280;35735;52.226;21.254;2023-06-14T20:37:10;100419.94;;;15.70;100.00
44988;BME280;35735;52.226;21.254;2023-06-14T20:42:11;100420.78;;;15.72;100.00
44988;BME280;35735;52.226;21.254;2023-06-14T20:47:12;100421.00;;;15.62;100.00
44988;BME280;35735;52.226;21.254;2023-06-14T20:52:12;100422.84;;;15.60;100.00
44988;BME280;35735;52.226;21.254;2023-06-14T20:57:13;100413.37;;;15.35;100.00
44988;BME280;35735;52.226;21.254;2023-06-14T21:02:14;100421.59;;;15.32;100.00
44988;BME280;35735;52.226;21.254;2023-06-14T21:07:14;100425.38;;;15.25;100.00
44988;BME280;35735;52.226;21.254;2023-06-14T21:12:15;100420.22;;;15.08;100.00
44988;BME280;35735;52.226;21.254;2023-06-14T21:17:15;100423.94;;;15.04;100.00
44988;BME280;35735;52.226;21.254;2023-06-14T21:22:16;100425.69;;;15.07;100.00
44988;BME280;35735;52.226;21.254;2023-06-14T21:27:16;100420.31;;;15.05;100.00
44988;BME280;35735;52.226;21.254;2023-06-14T21:32:17;100415.72;;;15.09;100.00
44988;BME280;35735;52.226;21.254;2023-06-14T21:37:17;100413.84;;;15.11;100.00
44988;BME280;35735;52.226;21.254;2023-06-14T21:42:18;100427.41;;;15.12;100.00
44988;BME280;35735;52.226;21.254;2023-06-14T21:47:19;100417.63;;;15.04;100.00
44988;BME280;35735;52.226;21.254;2023-06-14T21:52:19;100414.91;;;15.02;100.00
44988;BME280;35735;52.226;21.254;2023-06-14T21:57:20;100415.72;;;15.09;100.00
44988;BME280;35735;52.226;21.254;2023-06-14T22:02:21;100413.94;;;15.05;100.00
44988;BME280;35735;52.226;21.254;2023-06-14T22:07:21;100412.00;;;15.13;100.00
44988;BME280;35735;52.226;21.254;2023-06-14T22:12:22;100407.34;;;15.18;100.00
44988;BME280;35735;52.226;21.254;2023-06-14T22:17:23;100403.72;;;15.19;100.00
44988;BME280;35735;52.226;21.254;2023-06-14T22:22:23;100394.69;;;15.18;100.00
44988;BME280;35735;52.226;21.254;2023-06-14T22:27:24;100390.19;;;15.16;100.00
44988;BME280;35735;52.226;21.254;2023-06-14T22:32:27;100385.69;;;15.13;100.00
44988;BME280;35735;52.226;21.254;2023-06-14T22:37:28;100384.81;;;15.13;100.00
44988;BME280;35735;52.226;21.254;2023-06-14T22:42:29;100389.31;;;15.14;100.00
44988;BME280;35735;52.226;21.254;2023-06-14T22:47:29;100393.84;;;15.13;100.00
44988;BME280;35735;52.226;21.254;2023-06-14T22:52:30;100391.06;;;15.16;100.00
44988;BME280;35735;52.226;21.254;2023-06-14T22:57:30;100388.38;;;15.15;100.00
44988;BME280;35735;52.226;21.254;2023-06-14T23:02:31;100389.37;;;15.11;100.00
44988;BME280;35735;52.226;21.254;2023-06-14T23:07:32;100397.50;;;15.12;100.00
44988;BME280;35735;52.226;21.254;2023-06-14T23:12:33;100391.03;;;15.18;100.00
44988;BME280;35735;52.226;21.254;2023-06-14T23:17:33;100401.06;;;15.16;100.00
44988;BME280;35735;52.226;21.254;2023-06-14T23:22:34;100395.69;;;15.13;100.00
44988;BME280;35735;52.226;21.254;2023-06-14T23:27:35;100390.16;;;15.17;100.00
44988;BME280;35735;52.226;21.254;2023-06-14T23:32:36;100399.19;;;15.18;100.00
44988;BME280;35735;52.226;21.254;2023-06-14T23:37:37;100392.03;;;15.15;100.00
44988;BME280;35735;52.226;21.254;2023-06-14T23:42:37;100382.16;;;15.08;100.00
44988;BME280;35735;52.226;21.254;2023-06-14T23:47:38;100366.75;;;15.10;100.00
44988;BME280;35735;52.226;21.254;2023-06-14T23:52:38;100362.31;;;15.05;100.00
44988;BME280;35735;52.226;21.254;2023-06-14T23:57:39;100363.31;;;15.00;100.00
